sensor_id;sensor_type;location;lat;lon;timestamp;temperature;humidity
52675;DHT22;38569;52.722;6.440;2023-04-30T00:00:12;7.80;99.90
52675;DHT22;38569;52.722;6.440;2023-04-30T00:02:38;7.80;99.90
52675;DHT22;38569;52.722;6.440;2023-04-30T00:05:04;7.70;99.90
52675;DHT22;38569;52.722;6.440;2023-04-30T00:07:30;7.60;99.90
52675;DHT22;38569;52.722;6.440;2023-04-30T00:09:56;7.50;99.90
52675;DHT22;38569;52.722;6.440;2023-04-30T00:12:22;7.40;99.90
52675;DHT22;38569;52.722;6.440;2023-04-30T00:14:48;7.40;99.90
52675;DHT22;38569;52.722;6.440;2023-04-30T00:17:14;7.30;99.90
52675;DHT22;38569;52.722;6.440;2023-04-30T00:19:40;7.30;99.90
52675;DHT22;38569;52.722;6.440;2023-04-30T00:22:07;7.20;99.90
52675;DHT22;38569;52.722;6.440;2023-04-30T00:24:32;7.20;99.90
52675;DHT22;38569;52.722;6.440;2023-04-30T00:26:59;7.20;99.90
52675;DHT22;38569;52.722;6.440;2023-04-30T00:29:25;7.10;99.90
52675;DHT22;38569;52.722;6.440;2023-04-30T00:31:50;7.00;99.90
52675;DHT22;38569;52.722;6.440;2023-04-30T00:34:16;6.90;99.90
52675;DHT22;38569;52.722;6.440;2023-04-30T00:36:41;6.90;99.90
52675;DHT22;38569;52.722;6.440;2023-04-30T00:39:07;6.80;99.90
52675;DHT22;38569;52.722;6.440;2023-04-30T00:41:34;6.70;99.90
52675;DHT22;38569;52.722;6.440;2023-04-30T00:44:00;6.70;99.90
52675;DHT22;38569;52.722;6.440;2023-04-30T00:46:29;6.70;99.90
52675;DHT22;38569;52.722;6.440;2023-04-30T00:48:55;6.60;99.90
52675;DHT22;38569;52.722;6.440;2023-04-30T00:51:21;6.60;99.90
52675;DHT22;38569;52.722;6.440;2023-04-30T00:53:47;6.50;99.90
52675;DHT22;38569;52.722;6.440;2023-04-30T00:56:13;6.50;99.90
52675;DHT22;38569;52.722;6.440;2023-04-30T00:58:42;6.40;99.90
52675;DHT22;38569;52.722;6.440;2023-04-30T01:01:08;6.30;99.90
52675;DHT22;38569;52.722;6.440;2023-04-30T01:03:34;6.30;99.90
52675;DHT22;38569;52.722;6.440;2023-04-30T01:06:02;6.30;99.90
52675;DHT22;38569;52.722;6.440;2023-04-30T01:08:32;6.20;99.90
52675;DHT22;38569;52.722;6.440;2023-04-30T01:11:06;6.20;99.90
52675;DHT22;38569;52.722;6.440;2023-04-30T01:13:39;6.20;99.90
52675;DHT22;38569;52.722;6.440;2023-04-30T01:16:32;6.20;99.90
52675;DHT22;38569;52.722;6.440;2023-04-30T01:19:28;6.10;99.90
52675;DHT22;38569;52.722;6.440;2023-04-30T01:21:58;6.00;99.90
52675;DHT22;38569;52.722;6.440;2023-04-30T01:29:38;5.80;99.90
52675;DHT22;38569;52.722;6.440;2023-04-30T01:32:06;5.70;99.90
52675;DHT22;38569;52.722;6.440;2023-04-30T01:34:32;5.70;99.90
52675;DHT22;38569;52.722;6.440;2023-04-30T01:39:55;5.60;99.90
52675;DHT22;38569;52.722;6.440;2023-04-30T01:42:41;5.60;99.90
52675;DHT22;38569;52.722;6.440;2023-04-30T01:50:52;5.70;99.90
52675;DHT22;38569;52.722;6.440;2023-04-30T01:53:27;5.70;99.90
52675;DHT22;38569;52.722;6.440;2023-04-30T01:56:02;5.60;99.90
52675;DHT22;38569;52.722;6.440;2023-04-30T01:58:29;5.60;99.90
52675;DHT22;38569;52.722;6.440;2023-04-30T02:00:55;5.60;99.90
52675;DHT22;38569;52.722;6.440;2023-04-30T02:03:20;5.40;99.90
52675;DHT22;38569;52.722;6.440;2023-04-30T02:05:47;5.30;99.90
52675;DHT22;38569;52.722;6.440;2023-04-30T02:08:13;5.30;99.90
52675;DHT22;38569;52.722;6.440;2023-04-30T02:10:38;5.20;99.90
52675;DHT22;38569;52.722;6.440;2023-04-30T02:13:04;5.20;99.90
52675;DHT22;38569;52.722;6.440;2023-04-30T02:15:30;5.20;99.90
52675;DHT22;38569;52.722;6.440;2023-04-30T02:17:56;5.20;99.90
52675;DHT22;38569;52.722;6.440;2023-04-30T02:20:21;5.20;99.90
52675;DHT22;38569;52.722;6.440;2023-04-30T02:22:47;5.00;99.90
52675;DHT22;38569;52.722;6.440;2023-04-30T02:25:13;4.90;99.90
52675;DHT22;38569;52.722;6.440;2023-04-30T02:27:39;5.00;99.90
52675;DHT22;38569;52.722;6.440;2023-04-30T02:30:05;4.90;99.90
52675;DHT22;38569;52.722;6.440;2023-04-30T02:32:31;4.90;99.90
52675;DHT22;38569;52.722;6.440;2023-04-30T02:34:57;4.80;99.90
52675;DHT22;38569;52.722;6.440;2023-04-30T02:37:23;4.80;99.90
52675;DHT22;38569;52.722;6.440;2023-04-30T02:39:48;4.80;99.90
52675;DHT22;38569;52.722;6.440;2023-04-30T02:42:14;4.80;99.90
52675;DHT22;38569;52.722;6.440;2023-04-30T02:44:40;4.70;99.90
52675;DHT22;38569;52.722;6.440;2023-04-30T02:47:07;4.70;99.90
52675;DHT22;38569;52.722;6.440;2023-04-30T02:49:32;4.60;99.90
52675;DHT22;38569;52.722;6.440;2023-04-30T02:51:58;4.70;99.90
52675;DHT22;38569;52.722;6.440;2023-04-30T02:54:24;4.60;99.90
52675;DHT22;38569;52.722;6.440;2023-04-30T02:56:49;4.60;99.90
52675;DHT22;38569;52.722;6.440;2023-04-30T02:59:17;4.50;99.90
52675;DHT22;38569;52.722;6.440;2023-04-30T03:01:42;4.40;99.90
52675;DHT22;38569;52.722;6.440;2023-04-30T03:04:08;4.40;99.90
52675;DHT22;38569;52.722;6.440;2023-04-30T03:06:34;4.40;99.90
52675;DHT22;38569;52.722;6.440;2023-04-30T03:08:59;4.30;99.90
52675;DHT22;38569;52.722;6.440;2023-04-30T03:11:26;4.40;99.90
52675;DHT22;38569;52.722;6.440;2023-04-30T03:13:52;4.40;99.90
52675;DHT22;38569;52.722;6.440;2023-04-30T03:16:19;4.40;99.90
52675;DHT22;38569;52.722;6.440;2023-04-30T03:18:46;4.30;99.90
52675;DHT22;38569;52.722;6.440;2023-04-30T03:21:12;4.30;99.90
52675;DHT22;38569;52.722;6.440;2023-04-30T03:23:37;4.30;99.90
52675;DHT22;38569;52.722;6.440;2023-04-30T03:26:05;4.30;99.90
52675;DHT22;38569;52.722;6.440;2023-04-30T03:28:31;4.30;99.90
52675;DHT22;38569;52.722;6.440;2023-04-30T03:30:56;4.30;99.90
52675;DHT22;38569;52.722;6.440;2023-04-30T03:33:23;4.20;99.90
52675;DHT22;38569;52.722;6.440;2023-04-30T03:35:49;4.20;99.90
52675;DHT22;38569;52.722;6.440;2023-04-30T03:38:16;4.20;99.90
52675;DHT22;38569;52.722;6.440;2023-04-30T03:40:41;4.10;99.90
52675;DHT22;38569;52.722;6.440;2023-04-30T03:43:07;4.10;99.90
52675;DHT22;38569;52.722;6.440;2023-04-30T03:45:33;4.00;99.90
52675;DHT22;38569;52.722;6.440;2023-04-30T03:47:59;4.00;99.90
52675;DHT22;38569;52.722;6.440;2023-04-30T03:50:24;4.00;99.90
52675;DHT22;38569;52.722;6.440;2023-04-30T03:52:50;4.00;99.90
52675;DHT22;38569;52.722;6.440;2023-04-30T03:55:16;4.00;99.90
52675;DHT22;38569;52.722;6.440;2023-04-30T03:57:43;3.90;99.90
52675;DHT22;38569;52.722;6.440;2023-04-30T04:00:10;3.90;99.90
52675;DHT22;38569;52.722;6.440;2023-04-30T04:02:36;3.80;99.90
52675;DHT22;38569;52.722;6.440;2023-04-30T04:05:03;3.80;99.90
52675;DHT22;38569;52.722;6.440;2023-04-30T04:07:28;3.80;99.90
52675;DHT22;38569;52.722;6.440;2023-04-30T04:09:54;3.80;99.90
52675;DHT22;38569;52.722;6.440;2023-04-30T04:12:20;3.70;99.90
52675;DHT22;38569;52.722;6.440;2023-04-30T04:14:46;3.70;99.90
52675;DHT22;38569;52.722;6.440;2023-04-30T04:17:12;3.70;99.90
52675;DHT22;38569;52.722;6.440;2023-04-30T04:19:39;3.70;99.90
52675;DHT22;38569;52.722;6.440;2023-04-30T04:22:05;3.60;99.90
52675;DHT22;38569;52.722;6.440;2023-04-30T04:24:31;3.80;99.90
52675;DHT22;38569;52.722;6.440;2023-04-30T04:26:57;3.80;99.90
52675;DHT22;38569;52.722;6.440;2023-04-30T04:29:24;3.90;99.90
52675;DHT22;38569;52.722;6.440;2023-04-30T04:31:51;3.90;99.90
52675;DHT22;38569;52.722;6.440;2023-04-30T04:34:17;3.90;99.90
52675;DHT22;38569;52.722;6.440;2023-04-30T04:36:44;3.90;99.90
52675;DHT22;38569;52.722;6.440;2023-04-30T04:39:10;4.10;99.90
52675;DHT22;38569;52.722;6.440;2023-04-30T04:41:36;4.10;99.90
52675;DHT22;38569;52.722;6.440;2023-04-30T04:44:01;4.20;99.90
52675;DHT22;38569;52.722;6.440;2023-04-30T04:46:28;4.20;99.90
52675;DHT22;38569;52.722;6.440;2023-04-30T04:48:54;4.20;99.90
52675;DHT22;38569;52.722;6.440;2023-04-30T04:51:20;4.20;99.90
52675;DHT22;38569;52.722;6.440;2023-04-30T04:53:46;4.20;99.90
52675;DHT22;38569;52.722;6.440;2023-04-30T04:56:12;4.30;99.90
52675;DHT22;38569;52.722;6.440;2023-04-30T04:58:38;4.40;99.90
52675;DHT22;38569;52.722;6.440;2023-04-30T05:01:04;4.50;99.90
52675;DHT22;38569;52.722;6.440;2023-04-30T05:03:32;4.60;99.90
52675;DHT22;38569;52.722;6.440;2023-04-30T05:05:58;4.70;99.90
52675;DHT22;38569;52.722;6.440;2023-04-30T05:08:24;4.80;99.90
52675;DHT22;38569;52.722;6.440;2023-04-30T05:10:50;4.90;99.90
52675;DHT22;38569;52.722;6.440;2023-04-30T05:13:16;5.00;99.90
52675;DHT22;38569;52.722;6.440;2023-04-30T05:15:41;5.20;99.90
52675;DHT22;38569;52.722;6.440;2023-04-30T05:18:07;5.20;99.90
52675;DHT22;38569;52.722;6.440;2023-04-30T05:20:33;5.30;99.90
52675;DHT22;38569;52.722;6.440;2023-04-30T05:22:58;5.40;99.90
52675;DHT22;38569;52.722;6.440;2023-04-30T05:25:24;5.50;99.90
52675;DHT22;38569;52.722;6.440;2023-04-30T05:27:50;5.60;99.90
52675;DHT22;38569;52.722;6.440;2023-04-30T05:30:16;5.60;99.90
52675;DHT22;38569;52.722;6.440;2023-04-30T05:32:41;5.70;99.90
52675;DHT22;38569;52.722;6.440;2023-04-30T05:35:07;5.80;99.90
52675;DHT22;38569;52.722;6.440;2023-04-30T05:37:34;6.00;99.90
52675;DHT22;38569;52.722;6.440;2023-04-30T05:39:59;6.10;99.90
52675;DHT22;38569;52.722;6.440;2023-04-30T05:42:25;6.20;99.90
52675;DHT22;38569;52.722;6.440;2023-04-30T05:44:51;6.40;99.90
52675;DHT22;38569;52.722;6.440;2023-04-30T05:47:16;6.50;99.90
52675;DHT22;38569;52.722;6.440;2023-04-30T05:49:42;6.70;99.90
52675;DHT22;38569;52.722;6.440;2023-04-30T05:52:08;6.90;99.90
52675;DHT22;38569;52.722;6.440;2023-04-30T05:54:34;7.00;99.90
52675;DHT22;38569;52.722;6.440;2023-04-30T05:56:59;7.10;99.90
52675;DHT22;38569;52.722;6.440;2023-04-30T05:59:25;7.20;99.90
52675;DHT22;38569;52.722;6.440;2023-04-30T06:01:51;7.30;99.90
52675;DHT22;38569;52.722;6.440;2023-04-30T06:04:17;7.50;99.90
52675;DHT22;38569;52.722;6.440;2023-04-30T06:06:43;7.50;99.90
52675;DHT22;38569;52.722;6.440;2023-04-30T06:09:08;7.60;99.90
52675;DHT22;38569;52.722;6.440;2023-04-30T06:11:36;7.60;99.90
52675;DHT22;38569;52.722;6.440;2023-04-30T06:14:03;7.70;99.90
52675;DHT22;38569;52.722;6.440;2023-04-30T06:16:29;7.80;99.90
52675;DHT22;38569;52.722;6.440;2023-04-30T06:18:55;7.90;99.90
52675;DHT22;38569;52.722;6.440;2023-04-30T06:21:20;8.00;99.90
52675;DHT22;38569;52.722;6.440;2023-04-30T06:23:50;8.10;99.90
52675;DHT22;38569;52.722;6.440;2023-04-30T06:26:17;8.20;99.90
52675;DHT22;38569;52.722;6.440;2023-04-30T06:28:44;8.20;99.90
52675;DHT22;38569;52.722;6.440;2023-04-30T06:31:09;8.30;99.90
52675;DHT22;38569;52.722;6.440;2023-04-30T06:33:35;8.30;99.90
52675;DHT22;38569;52.722;6.440;2023-04-30T06:36:01;8.30;99.90
52675;DHT22;38569;52.722;6.440;2023-04-30T06:38:27;8.40;99.90
52675;DHT22;38569;52.722;6.440;2023-04-30T06:40:53;8.50;99.90
52675;DHT22;38569;52.722;6.440;2023-04-30T06:43:19;8.60;99.90
52675;DHT22;38569;52.722;6.440;2023-04-30T06:45:44;8.70;99.90
52675;DHT22;38569;52.722;6.440;2023-04-30T06:48:10;8.80;99.90
52675;DHT22;38569;52.722;6.440;2023-04-30T06:50:36;8.80;99.90
52675;DHT22;38569;52.722;6.440;2023-04-30T06:53:13;8.80;99.90
52675;DHT22;38569;52.722;6.440;2023-04-30T06:55:40;8.80;99.90
52675;DHT22;38569;52.722;6.440;2023-04-30T06:58:06;8.80;99.90
52675;DHT22;38569;52.722;6.440;2023-04-30T07:00:35;8.80;99.90
52675;DHT22;38569;52.722;6.440;2023-04-30T07:03:01;8.90;99.90
52675;DHT22;38569;52.722;6.440;2023-04-30T07:05:32;9.10;99.90
52675;DHT22;38569;52.722;6.440;2023-04-30T07:08:00;9.20;99.90
52675;DHT22;38569;52.722;6.440;2023-04-30T07:10:26;9.30;99.90
52675;DHT22;38569;52.722;6.440;2023-04-30T07:12:52;9.40;99.90
52675;DHT22;38569;52.722;6.440;2023-04-30T07:15:18;9.50;99.90
52675;DHT22;38569;52.722;6.440;2023-04-30T07:17:43;9.60;99.90
52675;DHT22;38569;52.722;6.440;2023-04-30T07:20:09;9.60;99.90
52675;DHT22;38569;52.722;6.440;2023-04-30T07:22:35;9.70;99.90
52675;DHT22;38569;52.722;6.440;2023-04-30T07:25:01;9.90;99.90
52675;DHT22;38569;52.722;6.440;2023-04-30T07:27:27;10.00;99.90
52675;DHT22;38569;52.722;6.440;2023-04-30T07:29:53;10.10;99.90
52675;DHT22;38569;52.722;6.440;2023-04-30T07:32:19;10.00;99.90
52675;DHT22;38569;52.722;6.440;2023-04-30T07:34:45;10.00;99.90
52675;DHT22;38569;52.722;6.440;2023-04-30T07:37:11;10.00;99.90
52675;DHT22;38569;52.722;6.440;2023-04-30T07:39:37;9.90;99.90
52675;DHT22;38569;52.722;6.440;2023-04-30T07:42:03;10.10;99.90
52675;DHT22;38569;52.722;6.440;2023-04-30T07:44:30;10.90;99.90
52675;DHT22;38569;52.722;6.440;2023-04-30T07:46:56;12.10;99.90
52675;DHT22;38569;52.722;6.440;2023-04-30T07:49:21;13.00;99.90
52675;DHT22;38569;52.722;6.440;2023-04-30T07:51:47;13.40;99.90
52675;DHT22;38569;52.722;6.440;2023-04-30T07:54:13;13.70;99.90
52675;DHT22;38569;52.722;6.440;2023-04-30T07:56:39;13.70;99.90
52675;DHT22;38569;52.722;6.440;2023-04-30T07:59:05;13.70;99.90
52675;DHT22;38569;52.722;6.440;2023-04-30T08:01:31;14.20;99.90
52675;DHT22;38569;52.722;6.440;2023-04-30T08:03:56;15.50;99.90
52675;DHT22;38569;52.722;6.440;2023-04-30T08:06:22;16.60;99.90
52675;DHT22;38569;52.722;6.440;2023-04-30T08:08:48;17.70;99.90
52675;DHT22;38569;52.722;6.440;2023-04-30T08:11:14;18.10;99.90
52675;DHT22;38569;52.722;6.440;2023-04-30T08:13:41;18.50;97.80
52675;DHT22;38569;52.722;6.440;2023-04-30T08:16:07;19.00;95.00
52675;DHT22;38569;52.722;6.440;2023-04-30T08:18:33;19.60;92.70
52675;DHT22;38569;52.722;6.440;2023-04-30T08:20:59;19.90;85.90
52675;DHT22;38569;52.722;6.440;2023-04-30T08:23:26;20.40;80.50
52675;DHT22;38569;52.722;6.440;2023-04-30T08:25:52;20.00;76.40
52675;DHT22;38569;52.722;6.440;2023-04-30T08:28:18;20.30;76.50
52675;DHT22;38569;52.722;6.440;2023-04-30T08:30:44;20.60;73.00
52675;DHT22;38569;52.722;6.440;2023-04-30T08:33:10;20.80;70.80
52675;DHT22;38569;52.722;6.440;2023-04-30T08:35:36;21.20;70.30
52675;DHT22;38569;52.722;6.440;2023-04-30T08:38:01;21.20;70.40
52675;DHT22;38569;52.722;6.440;2023-04-30T08:40:27;21.90;69.20
52675;DHT22;38569;52.722;6.440;2023-04-30T08:43:05;21.60;67.20
52675;DHT22;38569;52.722;6.440;2023-04-30T08:45:32;21.70;65.40
52675;DHT22;38569;52.722;6.440;2023-04-30T08:47:58;22.20;65.30
52675;DHT22;38569;52.722;6.440;2023-04-30T08:50:26;21.90;63.10
52675;DHT22;38569;52.722;6.440;2023-04-30T08:52:51;21.10;61.30
52675;DHT22;38569;52.722;6.440;2023-04-30T08:55:17;21.20;62.60
52675;DHT22;38569;52.722;6.440;2023-04-30T08:57:43;21.90;62.80
52675;DHT22;38569;52.722;6.440;2023-04-30T09:00:09;22.50;61.90
52675;DHT22;38569;52.722;6.440;2023-04-30T09:02:39;23.10;60.60
52675;DHT22;38569;52.722;6.440;2023-04-30T09:05:11;22.20;58.40
52675;DHT22;38569;52.722;6.440;2023-04-30T09:07:42;20.90;59.40
52675;DHT22;38569;52.722;6.440;2023-04-30T09:10:17;21.00;60.60
52675;DHT22;38569;52.722;6.440;2023-04-30T09:12:59;20.60;59.90
52675;DHT22;38569;52.722;6.440;2023-04-30T09:15:27;20.60;60.90
52675;DHT22;38569;52.722;6.440;2023-04-30T09:18:13;20.20;60.90
52675;DHT22;38569;52.722;6.440;2023-04-30T09:20:55;20.60;59.60
52675;DHT22;38569;52.722;6.440;2023-04-30T09:23:22;21.00;59.10
52675;DHT22;38569;52.722;6.440;2023-04-30T09:25:47;21.10;59.80
52675;DHT22;38569;52.722;6.440;2023-04-30T09:28:13;21.90;59.90
52675;DHT22;38569;52.722;6.440;2023-04-30T09:30:40;22.50;58.90
52675;DHT22;38569;52.722;6.440;2023-04-30T09:33:06;23.30;57.90
52675;DHT22;38569;52.722;6.440;2023-04-30T09:35:34;23.50;56.60
52675;DHT22;38569;52.722;6.440;2023-04-30T09:38:01;22.20;55.90
52675;DHT22;38569;52.722;6.440;2023-04-30T09:40:40;21.30;57.30
52675;DHT22;38569;52.722;6.440;2023-04-30T09:43:07;21.30;59.00
52675;DHT22;38569;52.722;6.440;2023-04-30T09:45:46;21.70;58.30
52675;DHT22;38569;52.722;6.440;2023-04-30T09:48:21;21.30;57.00
52675;DHT22;38569;52.722;6.440;2023-04-30T09:50:48;20.90;57.80
52675;DHT22;38569;52.722;6.440;2023-04-30T09:53:14;20.30;59.10
52675;DHT22;38569;52.722;6.440;2023-04-30T09:55:47;20.60;59.80
52675;DHT22;38569;52.722;6.440;2023-04-30T09:58:14;20.90;59.20
52675;DHT22;38569;52.722;6.440;2023-04-30T10:00:42;21.20;58.70
52675;DHT22;38569;52.722;6.440;2023-04-30T10:03:10;21.20;58.30
52675;DHT22;38569;52.722;6.440;2023-04-30T10:05:44;21.50;58.60
52675;DHT22;38569;52.722;6.440;2023-04-30T10:08:26;21.30;57.40
52675;DHT22;38569;52.722;6.440;2023-04-30T10:10:57;20.80;58.30
52675;DHT22;38569;52.722;6.440;2023-04-30T10:13:25;20.40;59.10
52675;DHT22;38569;52.722;6.440;2023-04-30T10:15:58;21.10;58.90
52675;DHT22;38569;52.722;6.440;2023-04-30T10:18:33;22.30;57.80
52675;DHT22;38569;52.722;6.440;2023-04-30T10:21:02;22.30;55.50
52675;DHT22;38569;52.722;6.440;2023-04-30T10:23:36;22.00;57.00
52675;DHT22;38569;52.722;6.440;2023-04-30T10:26:02;22.30;57.10
52675;DHT22;38569;52.722;6.440;2023-04-30T10:28:29;22.00;57.10
52675;DHT22;38569;52.722;6.440;2023-04-30T10:30:58;21.90;57.00
52675;DHT22;38569;52.722;6.440;2023-04-30T10:33:31;21.20;57.20
52675;DHT22;38569;52.722;6.440;2023-04-30T10:36:02;21.00;58.90
52675;DHT22;38569;52.722;6.440;2023-04-30T10:38:29;20.90;57.80
52675;DHT22;38569;52.722;6.440;2023-04-30T10:41:00;21.30;57.60
52675;DHT22;38569;52.722;6.440;2023-04-30T10:43:26;21.40;57.40
52675;DHT22;38569;52.722;6.440;2023-04-30T10:45:56;22.00;57.50
52675;DHT22;38569;52.722;6.440;2023-04-30T10:48:23;22.50;56.80
52675;DHT22;38569;52.722;6.440;2023-04-30T10:51:00;22.30;56.60
52675;DHT22;38569;52.722;6.440;2023-04-30T10:53:29;21.70;56.60
52675;DHT22;38569;52.722;6.440;2023-04-30T10:56:00;21.80;56.70
52675;DHT22;38569;52.722;6.440;2023-04-30T10:58:33;21.60;57.00
52675;DHT22;38569;52.722;6.440;2023-04-30T11:01:11;22.20;57.60
52675;DHT22;38569;52.722;6.440;2023-04-30T11:03:37;22.30;56.80
52675;DHT22;38569;52.722;6.440;2023-04-30T11:06:12;22.90;56.70
52675;DHT22;38569;52.722;6.440;2023-04-30T11:08:41;23.30;55.60
52675;DHT22;38569;52.722;6.440;2023-04-30T11:11:08;23.00;55.40
52675;DHT22;38569;52.722;6.440;2023-04-30T11:13:44;22.70;55.40
52675;DHT22;38569;52.722;6.440;2023-04-30T11:16:10;21.80;57.30
52675;DHT22;38569;52.722;6.440;2023-04-30T11:18:46;21.60;57.80
52675;DHT22;38569;52.722;6.440;2023-04-30T11:21:12;21.50;57.10
52675;DHT22;38569;52.722;6.440;2023-04-30T11:23:42;22.10;57.50
52675;DHT22;38569;52.722;6.440;2023-04-30T11:26:09;22.20;56.90
52675;DHT22;38569;52.722;6.440;2023-04-30T11:28:36;22.10;56.40
52675;DHT22;38569;52.722;6.440;2023-04-30T11:31:03;22.80;56.50
52675;DHT22;38569;52.722;6.440;2023-04-30T11:33:32;22.80;56.30
52675;DHT22;38569;52.722;6.440;2023-04-30T11:35:59;22.00;57.30
52675;DHT22;38569;52.722;6.440;2023-04-30T11:38:27;21.50;57.40
52675;DHT22;38569;52.722;6.440;2023-04-30T11:40:54;21.90;57.10
52675;DHT22;38569;52.722;6.440;2023-04-30T11:43:24;22.40;57.70
52675;DHT22;38569;52.722;6.440;2023-04-30T11:46:11;22.90;57.20
52675;DHT22;38569;52.722;6.440;2023-04-30T11:48:39;23.50;54.60
52675;DHT22;38569;52.722;6.440;2023-04-30T11:54:07;23.20;55.00
52675;DHT22;38569;52.722;6.440;2023-04-30T11:56:36;23.40;54.90
52675;DHT22;38569;52.722;6.440;2023-04-30T11:59:09;23.20;54.50
52675;DHT22;38569;52.722;6.440;2023-04-30T12:01:35;22.60;55.70
52675;DHT22;38569;52.722;6.440;2023-04-30T12:04:01;22.70;56.90
52675;DHT22;38569;52.722;6.440;2023-04-30T12:06:31;23.00;55.70
52675;DHT22;38569;52.722;6.440;2023-04-30T12:08:59;23.40;56.30
52675;DHT22;38569;52.722;6.440;2023-04-30T12:11:37;22.90;54.80
52675;DHT22;38569;52.722;6.440;2023-04-30T12:14:05;22.70;55.80
52675;DHT22;38569;52.722;6.440;2023-04-30T12:16:39;22.80;55.10
52675;DHT22;38569;52.722;6.440;2023-04-30T12:19:05;22.70;55.00
52675;DHT22;38569;52.722;6.440;2023-04-30T12:21:32;22.20;55.20
52675;DHT22;38569;52.722;6.440;2023-04-30T12:23:58;22.10;55.30
52675;DHT22;38569;52.722;6.440;2023-04-30T12:26:33;22.10;56.50
52675;DHT22;38569;52.722;6.440;2023-04-30T12:29:02;22.80;55.80
52675;DHT22;38569;52.722;6.440;2023-04-30T12:31:31;23.00;55.10
52675;DHT22;38569;52.722;6.440;2023-04-30T12:33:57;23.30;54.80
52675;DHT22;38569;52.722;6.440;2023-04-30T12:36:29;23.00;54.50
52675;DHT22;38569;52.722;6.440;2023-04-30T12:39:05;22.80;54.80
52675;DHT22;38569;52.722;6.440;2023-04-30T12:41:38;22.80;56.10
52675;DHT22;38569;52.722;6.440;2023-04-30T12:44:21;23.50;55.30
52675;DHT22;38569;52.722;6.440;2023-04-30T12:46:49;23.80;53.50
52675;DHT22;38569;52.722;6.440;2023-04-30T12:51:50;23.40;54.70
52675;DHT22;38569;52.722;6.440;2023-04-30T12:54:26;23.40;53.70
52675;DHT22;38569;52.722;6.440;2023-04-30T12:57:00;23.90;54.00
52675;DHT22;38569;52.722;6.440;2023-04-30T12:59:30;23.80;52.80
52675;DHT22;38569;52.722;6.440;2023-04-30T13:02:13;24.00;53.10
52675;DHT22;38569;52.722;6.440;2023-04-30T13:04:42;23.70;52.80
52675;DHT22;38569;52.722;6.440;2023-04-30T13:07:09;23.30;53.30
52675;DHT22;38569;52.722;6.440;2023-04-30T13:09:37;22.80;54.50
52675;DHT22;38569;52.722;6.440;2023-04-30T13:12:03;23.00;54.30
52675;DHT22;38569;52.722;6.440;2023-04-30T13:14:30;22.60;53.90
52675;DHT22;38569;52.722;6.440;2023-04-30T13:16:56;22.90;54.00
52675;DHT22;38569;52.722;6.440;2023-04-30T13:19:22;23.20;53.50
52675;DHT22;38569;52.722;6.440;2023-04-30T13:21:48;23.30;54.20
52675;DHT22;38569;52.722;6.440;2023-04-30T13:24:14;23.60;53.70
52675;DHT22;38569;52.722;6.440;2023-04-30T13:26:40;23.90;53.70
52675;DHT22;38569;52.722;6.440;2023-04-30T13:29:06;24.30;52.50
52675;DHT22;38569;52.722;6.440;2023-04-30T13:31:32;23.90;52.40
52675;DHT22;38569;52.722;6.440;2023-04-30T13:33:57;23.30;52.60
52675;DHT22;38569;52.722;6.440;2023-04-30T13:36:23;23.50;53.10
52675;DHT22;38569;52.722;6.440;2023-04-30T13:38:49;23.60;53.40
52675;DHT22;38569;52.722;6.440;2023-04-30T13:41:15;23.30;53.20
52675;DHT22;38569;52.722;6.440;2023-04-30T13:43:40;23.00;53.30
52675;DHT22;38569;52.722;6.440;2023-04-30T13:46:11;22.40;54.10
52675;DHT22;38569;52.722;6.440;2023-04-30T13:48:36;22.20;54.60
52675;DHT22;38569;52.722;6.440;2023-04-30T13:51:02;21.60;55.50
52675;DHT22;38569;52.722;6.440;2023-04-30T13:53:28;21.20;55.90
52675;DHT22;38569;52.722;6.440;2023-04-30T13:55:54;20.60;56.80
52675;DHT22;38569;52.722;6.440;2023-04-30T13:58:19;20.20;57.80
52675;DHT22;38569;52.722;6.440;2023-04-30T14:00:45;20.20;58.20
52675;DHT22;38569;52.722;6.440;2023-04-30T14:03:11;20.20;58.20
52675;DHT22;38569;52.722;6.440;2023-04-30T14:05:37;20.00;58.20
52675;DHT22;38569;52.722;6.440;2023-04-30T14:08:04;20.20;58.00
52675;DHT22;38569;52.722;6.440;2023-04-30T14:10:30;20.30;58.50
52675;DHT22;38569;52.722;6.440;2023-04-30T14:12:57;20.00;58.50
52675;DHT22;38569;52.722;6.440;2023-04-30T14:15:24;20.00;58.60
52675;DHT22;38569;52.722;6.440;2023-04-30T14:17:50;19.90;59.40
52675;DHT22;38569;52.722;6.440;2023-04-30T14:20:17;19.70;59.20
52675;DHT22;38569;52.722;6.440;2023-04-30T14:22:43;19.80;59.50
52675;DHT22;38569;52.722;6.440;2023-04-30T14:25:09;20.10;58.60
52675;DHT22;38569;52.722;6.440;2023-04-30T14:27:35;20.40;58.40
52675;DHT22;38569;52.722;6.440;2023-04-30T14:30:01;20.90;58.80
52675;DHT22;38569;52.722;6.440;2023-04-30T14:32:28;20.70;58.20
52675;DHT22;38569;52.722;6.440;2023-04-30T14:34:54;20.50;57.60
52675;DHT22;38569;52.722;6.440;2023-04-30T14:37:19;20.40;57.50
52675;DHT22;38569;52.722;6.440;2023-04-30T14:39:45;20.40;57.60
52675;DHT22;38569;52.722;6.440;2023-04-30T14:42:11;20.50;57.40
52675;DHT22;38569;52.722;6.440;2023-04-30T14:44:37;20.90;57.80
52675;DHT22;38569;52.722;6.440;2023-04-30T14:47:03;21.20;57.50
52675;DHT22;38569;52.722;6.440;2023-04-30T14:49:29;21.00;57.10
52675;DHT22;38569;52.722;6.440;2023-04-30T14:51:55;21.00;57.00
52675;DHT22;38569;52.722;6.440;2023-04-30T14:54:21;21.30;57.30
52675;DHT22;38569;52.722;6.440;2023-04-30T14:56:47;21.80;56.80
52675;DHT22;38569;52.722;6.440;2023-04-30T14:59:13;22.20;55.30
52675;DHT22;38569;52.722;6.440;2023-04-30T15:01:39;22.60;54.60
52675;DHT22;38569;52.722;6.440;2023-04-30T15:04:05;22.40;55.40
52675;DHT22;38569;52.722;6.440;2023-04-30T15:06:31;22.50;55.60
52675;DHT22;38569;52.722;6.440;2023-04-30T15:08:57;22.40;54.70
52675;DHT22;38569;52.722;6.440;2023-04-30T15:11:23;22.00;54.40
52675;DHT22;38569;52.722;6.440;2023-04-30T15:13:49;21.90;54.50
52675;DHT22;38569;52.722;6.440;2023-04-30T15:16:15;21.00;55.70
52675;DHT22;38569;52.722;6.440;2023-04-30T15:18:44;20.70;55.80
52675;DHT22;38569;52.722;6.440;2023-04-30T15:21:09;20.50;56.70
52675;DHT22;38569;52.722;6.440;2023-04-30T15:23:35;20.20;56.90
52675;DHT22;38569;52.722;6.440;2023-04-30T15:26:01;20.00;57.80
52675;DHT22;38569;52.722;6.440;2023-04-30T15:28:32;19.80;57.60
52675;DHT22;38569;52.722;6.440;2023-04-30T15:30:57;20.00;58.00
52675;DHT22;38569;52.722;6.440;2023-04-30T15:33:25;20.20;57.60
52675;DHT22;38569;52.722;6.440;2023-04-30T15:35:53;20.00;57.60
52675;DHT22;38569;52.722;6.440;2023-04-30T15:38:20;20.20;58.10
52675;DHT22;38569;52.722;6.440;2023-04-30T15:40:46;20.50;57.70
52675;DHT22;38569;52.722;6.440;2023-04-30T15:43:12;20.80;57.50
52675;DHT22;38569;52.722;6.440;2023-04-30T15:45:38;21.00;57.30
52675;DHT22;38569;52.722;6.440;2023-04-30T15:48:04;20.70;56.80
52675;DHT22;38569;52.722;6.440;2023-04-30T15:50:30;20.80;57.50
52675;DHT22;38569;52.722;6.440;2023-04-30T15:52:56;20.80;57.30
52675;DHT22;38569;52.722;6.440;2023-04-30T15:55:22;20.60;56.90
52675;DHT22;38569;52.722;6.440;2023-04-30T15:57:49;20.50;57.00